sensor_id;sensor_type;location;lat;lon;timestamp;temperature;humidity
46123;DHT22;31856;-35.404;149.120;2023-07-16T00:00:01;7.90;74.00
46123;DHT22;31856;-35.404;149.120;2023-07-16T00:02:33;8.00;73.70
46123;DHT22;31856;-35.404;149.120;2023-07-16T00:05:03;8.10;73.60
46123;DHT22;31856;-35.404;149.120;2023-07-16T00:07:33;8.20;73.20
46123;DHT22;31856;-35.404;149.120;2023-07-16T00:10:02;8.30;73.10
46123;DHT22;31856;-35.404;149.120;2023-07-16T00:12:32;8.40;72.70
46123;DHT22;31856;-35.404;149.120;2023-07-16T00:15:02;8.50;72.50
46123;DHT22;31856;-35.404;149.120;2023-07-16T00:17:32;8.60;72.60
46123;DHT22;31856;-35.404;149.120;2023-07-16T00:20:02;8.70;72.60
46123;DHT22;31856;-35.404;149.120;2023-07-16T00:22:33;8.80;72.50
46123;DHT22;31856;-35.404;149.120;2023-07-16T00:25:03;8.90;72.40
46123;DHT22;31856;-35.404;149.120;2023-07-16T00:27:33;9.00;72.20
46123;DHT22;31856;-35.404;149.120;2023-07-16T00:30:03;9.10;71.70
46123;DHT22;31856;-35.404;149.120;2023-07-16T00:32:32;9.10;71.80
46123;DHT22;31856;-35.404;149.120;2023-07-16T00:35:02;9.30;71.70
46123;DHT22;31856;-35.404;149.120;2023-07-16T00:37:33;9.30;71.80
46123;DHT22;31856;-35.404;149.120;2023-07-16T00:40:02;9.40;71.90
46123;DHT22;31856;-35.404;149.120;2023-07-16T00:42:33;9.50;71.80
46123;DHT22;31856;-35.404;149.120;2023-07-16T00:45:03;9.70;71.80
46123;DHT22;31856;-35.404;149.120;2023-07-16T00:47:38;9.70;71.80
46123;DHT22;31856;-35.404;149.120;2023-07-16T00:50:10;9.80;72.00
46123;DHT22;31856;-35.404;149.120;2023-07-16T00:52:40;10.00;71.90
46123;DHT22;31856;-35.404;149.120;2023-07-16T00:55:09;10.10;72.00
46123;DHT22;31856;-35.404;149.120;2023-07-16T00:57:39;10.20;71.80
46123;DHT22;31856;-35.404;149.120;2023-07-16T01:00:09;10.20;71.70
46123;DHT22;31856;-35.404;149.120;2023-07-16T01:02:40;10.40;71.80
46123;DHT22;31856;-35.404;149.120;2023-07-16T01:05:09;10.50;72.10
46123;DHT22;31856;-35.404;149.120;2023-07-16T01:07:39;10.60;72.30
46123;DHT22;31856;-35.404;149.120;2023-07-16T01:10:12;10.70;72.30
46123;DHT22;31856;-35.404;149.120;2023-07-16T01:12:41;10.80;72.40
46123;DHT22;31856;-35.404;149.120;2023-07-16T01:15:11;10.80;72.20
46123;DHT22;31856;-35.404;149.120;2023-07-16T01:17:41;10.90;72.40
46123;DHT22;31856;-35.404;149.120;2023-07-16T01:20:11;10.90;72.30
46123;DHT22;31856;-35.404;149.120;2023-07-16T01:22:48;11.10;72.70
46123;DHT22;31856;-35.404;149.120;2023-07-16T01:30:45;11.40;73.50
46123;DHT22;31856;-35.404;149.120;2023-07-16T01:33:16;11.60;74.20
46123;DHT22;31856;-35.404;149.120;2023-07-16T01:35:46;11.80;74.00
46123;DHT22;31856;-35.404;149.120;2023-07-16T01:38:16;11.90;73.60
46123;DHT22;31856;-35.404;149.120;2023-07-16T01:40:48;12.00;73.30
46123;DHT22;31856;-35.404;149.120;2023-07-16T01:43:17;12.10;72.80
46123;DHT22;31856;-35.404;149.120;2023-07-16T01:45:47;12.10;73.00
46123;DHT22;31856;-35.404;149.120;2023-07-16T01:48:29;12.20;72.80
46123;DHT22;31856;-35.404;149.120;2023-07-16T01:50:59;12.30;72.90
46123;DHT22;31856;-35.404;149.120;2023-07-16T01:53:29;12.40;72.10
46123;DHT22;31856;-35.404;149.120;2023-07-16T01:56:00;12.40;72.10
46123;DHT22;31856;-35.404;149.120;2023-07-16T01:58:29;12.50;72.50
46123;DHT22;31856;-35.404;149.120;2023-07-16T02:00:59;12.60;72.30
46123;DHT22;31856;-35.404;149.120;2023-07-16T02:03:29;12.70;72.00
46123;DHT22;31856;-35.404;149.120;2023-07-16T02:05:59;12.80;71.80
46123;DHT22;31856;-35.404;149.120;2023-07-16T02:08:30;12.80;71.60
46123;DHT22;31856;-35.404;149.120;2023-07-16T02:10:59;12.80;71.10
46123;DHT22;31856;-35.404;149.120;2023-07-16T02:13:29;12.90;71.30
46123;DHT22;31856;-35.404;149.120;2023-07-16T02:15:58;13.00;70.80
46123;DHT22;31856;-35.404;149.120;2023-07-16T02:18:28;13.00;70.30
46123;DHT22;31856;-35.404;149.120;2023-07-16T02:20:58;13.20;70.20
46123;DHT22;31856;-35.404;149.120;2023-07-16T02:23:27;13.30;69.50
46123;DHT22;31856;-35.404;149.120;2023-07-16T02:25:57;13.30;69.00
46123;DHT22;31856;-35.404;149.120;2023-07-16T02:28:27;13.30;69.10
46123;DHT22;31856;-35.404;149.120;2023-07-16T02:30:57;13.40;69.00
46123;DHT22;31856;-35.404;149.120;2023-07-16T02:33:29;13.50;68.70
46123;DHT22;31856;-35.404;149.120;2023-07-16T02:36:00;13.60;68.70
46123;DHT22;31856;-35.404;149.120;2023-07-16T02:38:29;13.60;68.30
46123;DHT22;31856;-35.404;149.120;2023-07-16T02:40:59;13.60;68.10
46123;DHT22;31856;-35.404;149.120;2023-07-16T02:43:28;13.70;68.00
46123;DHT22;31856;-35.404;149.120;2023-07-16T02:45:59;13.70;67.80
46123;DHT22;31856;-35.404;149.120;2023-07-16T02:48:28;13.80;67.00
46123;DHT22;31856;-35.404;149.120;2023-07-16T02:50:58;13.80;67.30
46123;DHT22;31856;-35.404;149.120;2023-07-16T02:53:27;13.80;67.40
46123;DHT22;31856;-35.404;149.120;2023-07-16T02:55:58;13.80;67.40
46123;DHT22;31856;-35.404;149.120;2023-07-16T02:58:28;13.90;67.50
46123;DHT22;31856;-35.404;149.120;2023-07-16T03:00:58;13.90;66.90
46123;DHT22;31856;-35.404;149.120;2023-07-16T03:03:27;13.90;66.80
46123;DHT22;31856;-35.404;149.120;2023-07-16T03:06:02;14.00;66.60
46123;DHT22;31856;-35.404;149.120;2023-07-16T03:08:32;14.00;66.50
46123;DHT22;31856;-35.404;149.120;2023-07-16T03:11:03;14.00;66.70
46123;DHT22;31856;-35.404;149.120;2023-07-16T03:13:33;14.20;66.20
46123;DHT22;31856;-35.404;149.120;2023-07-16T03:16:03;14.20;65.80
46123;DHT22;31856;-35.404;149.120;2023-07-16T03:18:33;14.30;64.80
46123;DHT22;31856;-35.404;149.120;2023-07-16T03:21:03;14.30;64.40
46123;DHT22;31856;-35.404;149.120;2023-07-16T03:23:33;14.30;64.50
46123;DHT22;31856;-35.404;149.120;2023-07-16T03:26:02;14.30;63.90
46123;DHT22;31856;-35.404;149.120;2023-07-16T03:28:32;14.40;60.20
46123;DHT22;31856;-35.404;149.120;2023-07-16T03:31:02;14.30;58.80
46123;DHT22;31856;-35.404;149.120;2023-07-16T03:33:31;14.30;60.20
46123;DHT22;31856;-35.404;149.120;2023-07-16T03:36:01;14.30;60.50
46123;DHT22;31856;-35.404;149.120;2023-07-16T03:38:31;14.30;61.00
46123;DHT22;31856;-35.404;149.120;2023-07-16T03:41:01;14.40;62.90
46123;DHT22;31856;-35.404;149.120;2023-07-16T03:43:31;14.50;62.20
46123;DHT22;31856;-35.404;149.120;2023-07-16T03:46:00;14.50;61.80
46123;DHT22;31856;-35.404;149.120;2023-07-16T03:48:30;14.60;62.50
46123;DHT22;31856;-35.404;149.120;2023-07-16T03:50:59;14.60;62.40
46123;DHT22;31856;-35.404;149.120;2023-07-16T03:53:29;14.70;60.30
46123;DHT22;31856;-35.404;149.120;2023-07-16T03:55:58;14.70;58.20
46123;DHT22;31856;-35.404;149.120;2023-07-16T03:58:28;14.60;57.50
46123;DHT22;31856;-35.404;149.120;2023-07-16T04:00:58;14.70;58.30
46123;DHT22;31856;-35.404;149.120;2023-07-16T04:03:27;14.80;58.80
46123;DHT22;31856;-35.404;149.120;2023-07-16T04:06:07;14.80;59.30
46123;DHT22;31856;-35.404;149.120;2023-07-16T04:08:38;14.80;59.70
46123;DHT22;31856;-35.404;149.120;2023-07-16T04:11:08;14.80;59.00
46123;DHT22;31856;-35.404;149.120;2023-07-16T04:13:37;14.80;58.70
46123;DHT22;31856;-35.404;149.120;2023-07-16T04:16:07;14.80;58.90
46123;DHT22;31856;-35.404;149.120;2023-07-16T04:18:36;14.90;58.70
46123;DHT22;31856;-35.404;149.120;2023-07-16T04:21:06;14.90;58.60
46123;DHT22;31856;-35.404;149.120;2023-07-16T04:23:35;14.90;58.90
46123;DHT22;31856;-35.404;149.120;2023-07-16T04:26:05;14.90;58.10
46123;DHT22;31856;-35.404;149.120;2023-07-16T04:28:35;14.90;57.90
46123;DHT22;31856;-35.404;149.120;2023-07-16T04:31:04;15.00;57.80
46123;DHT22;31856;-35.404;149.120;2023-07-16T04:33:34;14.90;58.00
46123;DHT22;31856;-35.404;149.120;2023-07-16T04:36:04;14.90;57.70
46123;DHT22;31856;-35.404;149.120;2023-07-16T04:38:33;15.00;57.70
46123;DHT22;31856;-35.404;149.120;2023-07-16T04:41:03;15.00;58.00
46123;DHT22;31856;-35.404;149.120;2023-07-16T04:43:32;15.00;58.30
46123;DHT22;31856;-35.404;149.120;2023-07-16T04:46:02;15.00;57.80
46123;DHT22;31856;-35.404;149.120;2023-07-16T04:48:32;15.00;57.70
46123;DHT22;31856;-35.404;149.120;2023-07-16T04:51:01;15.10;57.90
46123;DHT22;31856;-35.404;149.120;2023-07-16T04:53:32;15.10;58.10
46123;DHT22;31856;-35.404;149.120;2023-07-16T04:56:02;15.10;57.90
46123;DHT22;31856;-35.404;149.120;2023-07-16T04:58:32;15.10;58.20
46123;DHT22;31856;-35.404;149.120;2023-07-16T05:01:02;15.10;58.60
46123;DHT22;31856;-35.404;149.120;2023-07-16T05:03:31;15.20;58.50
46123;DHT22;31856;-35.404;149.120;2023-07-16T05:06:01;15.10;58.50
46123;DHT22;31856;-35.404;149.120;2023-07-16T05:08:31;15.20;58.30
46123;DHT22;31856;-35.404;149.120;2023-07-16T05:11:01;15.10;57.90
46123;DHT22;31856;-35.404;149.120;2023-07-16T05:13:31;15.10;57.90
46123;DHT22;31856;-35.404;149.120;2023-07-16T05:16:00;15.10;58.40
46123;DHT22;31856;-35.404;149.120;2023-07-16T05:18:30;15.00;57.90
46123;DHT22;31856;-35.404;149.120;2023-07-16T05:21:00;15.00;57.80
46123;DHT22;31856;-35.404;149.120;2023-07-16T05:23:29;15.00;57.80
46123;DHT22;31856;-35.404;149.120;2023-07-16T05:25:59;15.00;57.10
46123;DHT22;31856;-35.404;149.120;2023-07-16T05:28:29;15.00;57.00
46123;DHT22;31856;-35.404;149.120;2023-07-16T05:30:59;15.00;57.40
46123;DHT22;31856;-35.404;149.120;2023-07-16T05:33:29;15.00;57.60
46123;DHT22;31856;-35.404;149.120;2023-07-16T05:35:58;15.00;57.50
46123;DHT22;31856;-35.404;149.120;2023-07-16T05:38:28;14.90;57.20
46123;DHT22;31856;-35.404;149.120;2023-07-16T05:41:01;14.80;57.60
46123;DHT22;31856;-35.404;149.120;2023-07-16T05:43:32;14.80;57.40
46123;DHT22;31856;-35.404;149.120;2023-07-16T05:46:02;14.80;57.50
46123;DHT22;31856;-35.404;149.120;2023-07-16T05:48:33;14.80;57.90
46123;DHT22;31856;-35.404;149.120;2023-07-16T05:51:03;14.80;58.30
46123;DHT22;31856;-35.404;149.120;2023-07-16T05:53:33;14.60;58.20
46123;DHT22;31856;-35.404;149.120;2023-07-16T05:56:02;14.50;58.30
46123;DHT22;31856;-35.404;149.120;2023-07-16T05:58:32;14.50;58.60
46123;DHT22;31856;-35.404;149.120;2023-07-16T06:01:02;14.40;58.60
46123;DHT22;31856;-35.404;149.120;2023-07-16T06:03:31;14.30;58.50
46123;DHT22;31856;-35.404;149.120;2023-07-16T06:06:01;14.30;58.70
46123;DHT22;31856;-35.404;149.120;2023-07-16T06:08:30;14.30;58.80
46123;DHT22;31856;-35.404;149.120;2023-07-16T06:11:00;14.20;58.20
46123;DHT22;31856;-35.404;149.120;2023-07-16T06:13:31;14.10;58.70
46123;DHT22;31856;-35.404;149.120;2023-07-16T06:16:01;14.10;59.00
46123;DHT22;31856;-35.404;149.120;2023-07-16T06:18:35;14.00;58.80
46123;DHT22;31856;-35.404;149.120;2023-07-16T06:21:05;13.90;58.70
46123;DHT22;31856;-35.404;149.120;2023-07-16T06:23:35;13.80;59.20
46123;DHT22;31856;-35.404;149.120;2023-07-16T06:26:05;13.80;59.80
46123;DHT22;31856;-35.404;149.120;2023-07-16T06:28:35;13.70;59.80
46123;DHT22;31856;-35.404;149.120;2023-07-16T06:31:04;13.70;60.10
46123;DHT22;31856;-35.404;149.120;2023-07-16T06:33:34;13.60;60.40
46123;DHT22;31856;-35.404;149.120;2023-07-16T06:36:03;13.50;60.40
46123;DHT22;31856;-35.404;149.120;2023-07-16T06:38:33;13.50;60.60
46123;DHT22;31856;-35.404;149.120;2023-07-16T06:41:03;13.40;61.00
46123;DHT22;31856;-35.404;149.120;2023-07-16T06:43:32;13.30;61.30
46123;DHT22;31856;-35.404;149.120;2023-07-16T06:46:02;13.20;61.70
46123;DHT22;31856;-35.404;149.120;2023-07-16T06:48:33;13.10;62.10
46123;DHT22;31856;-35.404;149.120;2023-07-16T06:51:03;13.00;62.60
46123;DHT22;31856;-35.404;149.120;2023-07-16T06:53:32;12.90;63.00
46123;DHT22;31856;-35.404;149.120;2023-07-16T06:56:02;12.80;63.50
46123;DHT22;31856;-35.404;149.120;2023-07-16T06:58:33;12.70;63.80
46123;DHT22;31856;-35.404;149.120;2023-07-16T07:01:03;12.60;64.40
46123;DHT22;31856;-35.404;149.120;2023-07-16T07:03:32;12.60;64.50
46123;DHT22;31856;-35.404;149.120;2023-07-16T07:06:06;12.50;64.60
46123;DHT22;31856;-35.404;149.120;2023-07-16T07:08:36;12.40;64.80
46123;DHT22;31856;-35.404;149.120;2023-07-16T07:11:06;12.40;64.90
46123;DHT22;31856;-35.404;149.120;2023-07-16T07:13:36;12.30;65.20
46123;DHT22;31856;-35.404;149.120;2023-07-16T07:16:05;12.20;65.50
46123;DHT22;31856;-35.404;149.120;2023-07-16T07:18:35;12.10;66.10
46123;DHT22;31856;-35.404;149.120;2023-07-16T07:21:05;12.00;66.40
46123;DHT22;31856;-35.404;149.120;2023-07-16T07:23:35;12.00;66.70
46123;DHT22;31856;-35.404;149.120;2023-07-16T07:26:05;11.90;66.90
46123;DHT22;31856;-35.404;149.120;2023-07-16T07:28:34;11.80;67.10
46123;DHT22;31856;-35.404;149.120;2023-07-16T07:31:05;11.70;67.50
46123;DHT22;31856;-35.404;149.120;2023-07-16T07:33:35;11.70;67.70
46123;DHT22;31856;-35.404;149.120;2023-07-16T07:36:04;11.50;67.80
46123;DHT22;31856;-35.404;149.120;2023-07-16T07:38:34;11.40;68.20
46123;DHT22;31856;-35.404;149.120;2023-07-16T07:41:07;11.40;68.20
46123;DHT22;31856;-35.404;149.120;2023-07-16T07:43:36;11.30;68.20
46123;DHT22;31856;-35.404;149.120;2023-07-16T07:46:07;11.30;68.40
46123;DHT22;31856;-35.404;149.120;2023-07-16T07:48:36;11.30;68.60
46123;DHT22;31856;-35.404;149.120;2023-07-16T07:51:07;11.10;68.40
46123;DHT22;31856;-35.404;149.120;2023-07-16T07:53:38;11.10;68.40
46123;DHT22;31856;-35.404;149.120;2023-07-16T07:56:07;11.00;68.40
46123;DHT22;31856;-35.404;149.120;2023-07-16T07:58:37;11.00;68.30
46123;DHT22;31856;-35.404;149.120;2023-07-16T08:01:07;11.00;68.30
46123;DHT22;31856;-35.404;149.120;2023-07-16T08:03:36;10.90;68.50
46123;DHT22;31856;-35.404;149.120;2023-07-16T08:06:06;10.80;68.80
46123;DHT22;31856;-35.404;149.120;2023-07-16T08:08:36;10.80;68.60
46123;DHT22;31856;-35.404;149.120;2023-07-16T08:11:05;10.80;68.40
46123;DHT22;31856;-35.404;149.120;2023-07-16T08:13:35;10.70;68.40
46123;DHT22;31856;-35.404;149.120;2023-07-16T08:16:05;10.70;68.40
46123;DHT22;31856;-35.404;149.120;2023-07-16T08:18:35;10.70;68.50
46123;DHT22;31856;-35.404;149.120;2023-07-16T08:21:05;10.70;68.60
46123;DHT22;31856;-35.404;149.120;2023-07-16T08:23:35;10.60;68.70
46123;DHT22;31856;-35.404;149.120;2023-07-16T08:26:05;10.60;68.80
46123;DHT22;31856;-35.404;149.120;2023-07-16T08:28:35;10.60;69.00
46123;DHT22;31856;-35.404;149.120;2023-07-16T08:31:06;10.50;69.10
46123;DHT22;31856;-35.404;149.120;2023-07-16T08:33:36;10.50;69.10
46123;DHT22;31856;-35.404;149.120;2023-07-16T08:36:06;10.50;69.20
46123;DHT22;31856;-35.404;149.120;2023-07-16T08:38:36;10.50;69.40
46123;DHT22;31856;-35.404;149.120;2023-07-16T08:41:05;10.40;69.30
46123;DHT22;31856;-35.404;149.120;2023-07-16T08:43:35;10.40;69.40
46123;DHT22;31856;-35.404;149.120;2023-07-16T08:46:04;10.40;69.50
46123;DHT22;31856;-35.404;149.120;2023-07-16T08:48:34;10.30;69.90
46123;DHT22;31856;-35.404;149.120;2023-07-16T08:51:03;10.30;70.10
46123;DHT22;31856;-35.404;149.120;2023-07-16T08:53:34;10.20;70.40
46123;DHT22;31856;-35.404;149.120;2023-07-16T08:56:03;10.20;70.60
46123;DHT22;31856;-35.404;149.120;2023-07-16T08:58:34;10.10;70.80
46123;DHT22;31856;-35.404;149.120;2023-07-16T09:01:05;10.00;71.20
46123;DHT22;31856;-35.404;149.120;2023-07-16T09:03:35;9.90;71.90
46123;DHT22;31856;-35.404;149.120;2023-07-16T09:06:05;9.80;72.40
46123;DHT22;31856;-35.404;149.120;2023-07-16T09:08:35;9.80;72.20
46123;DHT22;31856;-35.404;149.120;2023-07-16T09:11:04;9.70;72.30
46123;DHT22;31856;-35.404;149.120;2023-07-16T09:13:34;9.70;72.20
46123;DHT22;31856;-35.404;149.120;2023-07-16T09:16:03;9.60;72.40
46123;DHT22;31856;-35.404;149.120;2023-07-16T09:18:33;9.60;72.40
46123;DHT22;31856;-35.404;149.120;2023-07-16T09:21:02;9.50;72.60
46123;DHT22;31856;-35.404;149.120;2023-07-16T09:23:35;9.50;72.60
46123;DHT22;31856;-35.404;149.120;2023-07-16T09:26:05;9.40;73.10
46123;DHT22;31856;-35.404;149.120;2023-07-16T09:28:35;9.40;73.00
46123;DHT22;31856;-35.404;149.120;2023-07-16T09:31:05;9.30;73.00
46123;DHT22;31856;-35.404;149.120;2023-07-16T09:33:36;9.30;73.20
46123;DHT22;31856;-35.404;149.120;2023-07-16T09:36:05;9.30;73.30
46123;DHT22;31856;-35.404;149.120;2023-07-16T09:38:36;9.20;73.30
46123;DHT22;31856;-35.404;149.120;2023-07-16T09:41:05;9.20;73.20
46123;DHT22;31856;-35.404;149.120;2023-07-16T09:43:35;9.10;73.00
46123;DHT22;31856;-35.404;149.120;2023-07-16T09:46:05;9.20;72.80
46123;DHT22;31856;-35.404;149.120;2023-07-16T09:48:35;9.10;72.90
46123;DHT22;31856;-35.404;149.120;2023-07-16T09:51:05;9.10;73.10
46123;DHT22;31856;-35.404;149.120;2023-07-16T09:53:38;9.00;72.80
46123;DHT22;31856;-35.404;149.120;2023-07-16T09:56:09;9.00;72.50
46123;DHT22;31856;-35.404;149.120;2023-07-16T09:58:39;8.90;72.40
46123;DHT22;31856;-35.404;149.120;2023-07-16T10:01:10;8.90;72.70
46123;DHT22;31856;-35.404;149.120;2023-07-16T10:03:50;8.90;72.60
46123;DHT22;31856;-35.404;149.120;2023-07-16T10:06:21;8.80;72.70
46123;DHT22;31856;-35.404;149.120;2023-07-16T10:08:50;8.80;72.60
46123;DHT22;31856;-35.404;149.120;2023-07-16T10:11:20;8.80;72.60
46123;DHT22;31856;-35.404;149.120;2023-07-16T10:13:49;8.80;72.70
46123;DHT22;31856;-35.404;149.120;2023-07-16T10:16:23;8.70;72.90
46123;DHT22;31856;-35.404;149.120;2023-07-16T10:18:53;8.70;73.00
46123;DHT22;31856;-35.404;149.120;2023-07-16T10:21:24;8.70;73.10
46123;DHT22;31856;-35.404;149.120;2023-07-16T10:23:57;8.60;73.20
46123;DHT22;31856;-35.404;149.120;2023-07-16T10:26:31;8.50;73.20
46123;DHT22;31856;-35.404;149.120;2023-07-16T10:29:02;8.50;73.10
46123;DHT22;31856;-35.404;149.120;2023-07-16T10:31:32;8.50;73.10
46123;DHT22;31856;-35.404;149.120;2023-07-16T10:34:02;8.40;73.40
46123;DHT22;31856;-35.404;149.120;2023-07-16T10:36:37;8.30;73.60
46123;DHT22;31856;-35.404;149.120;2023-07-16T10:39:07;8.30;73.70
46123;DHT22;31856;-35.404;149.120;2023-07-16T10:41:37;8.30;73.70
46123;DHT22;31856;-35.404;149.120;2023-07-16T10:44:11;8.30;73.50
46123;DHT22;31856;-35.404;149.120;2023-07-16T10:46:42;8.30;73.70
46123;DHT22;31856;-35.404;149.120;2023-07-16T10:49:12;8.20;73.70
46123;DHT22;31856;-35.404;149.120;2023-07-16T10:51:42;8.20;73.70
46123;DHT22;31856;-35.404;149.120;2023-07-16T10:54:12;8.10;73.70
46123;DHT22;31856;-35.404;149.120;2023-07-16T10:56:41;8.10;74.00
46123;DHT22;31856;-35.404;149.120;2023-07-16T10:59:11;8.00;74.00
46123;DHT22;31856;-35.404;149.120;2023-07-16T11:01:41;7.90;74.10
46123;DHT22;31856;-35.404;149.120;2023-07-16T11:04:11;7.90;74.20
46123;DHT22;31856;-35.404;149.120;2023-07-16T11:06:41;7.90;74.10
46123;DHT22;31856;-35.404;149.120;2023-07-16T11:09:11;7.80;74.20
46123;DHT22;31856;-35.404;149.120;2023-07-16T11:11:40;7.80;74.10
46123;DHT22;31856;-35.404;149.120;2023-07-16T11:14:10;7.80;74.00
46123;DHT22;31856;-35.404;149.120;2023-07-16T11:16:39;7.70;74.00
46123;DHT22;31856;-35.404;149.120;2023-07-16T11:19:09;7.60;74.10
46123;DHT22;31856;-35.404;149.120;2023-07-16T11:21:38;7.60;74.20
46123;DHT22;31856;-35.404;149.120;2023-07-16T11:24:14;7.50;74.40
46123;DHT22;31856;-35.404;149.120;2023-07-16T11:26:56;7.50;74.70
46123;DHT22;31856;-35.404;149.120;2023-07-16T11:29:33;7.50;74.70
46123;DHT22;31856;-35.404;149.120;2023-07-16T11:32:04;7.40;74.60
46123;DHT22;31856;-35.404;149.120;2023-07-16T11:34:34;7.30;74.80
46123;DHT22;31856;-35.404;149.120;2023-07-16T11:37:07;7.30;74.80
46123;DHT22;31856;-35.404;149.120;2023-07-16T11:39:37;7.30;74.90
46123;DHT22;31856;-35.404;149.120;2023-07-16T11:42:07;7.30;74.70
46123;DHT22;31856;-35.404;149.120;2023-07-16T11:44:37;7.20;74.90
46123;DHT22;31856;-35.404;149.120;2023-07-16T11:47:08;7.10;75.20
46123;DHT22;31856;-35.404;149.120;2023-07-16T11:49:37;7.10;75.20
46123;DHT22;31856;-35.404;149.120;2023-07-16T11:52:08;7.10;75.20
46123;DHT22;31856;-35.404;149.120;2023-07-16T11:54:39;7.00;75.40
46123;DHT22;31856;-35.404;149.120;2023-07-16T11:57:08;7.00;75.50
46123;DHT22;31856;-35.404;149.120;2023-07-16T11:59:38;6.90;75.80
46123;DHT22;31856;-35.404;149.120;2023-07-16T12:02:09;6.90;75.60
46123;DHT22;31856;-35.404;149.120;2023-07-16T12:04:39;6.90;75.70
46123;DHT22;31856;-35.404;149.120;2023-07-16T12:07:10;6.80;75.70
46123;DHT22;31856;-35.404;149.120;2023-07-16T12:09:39;6.80;75.70
46123;DHT22;31856;-35.404;149.120;2023-07-16T12:12:10;6.70;75.90
46123;DHT22;31856;-35.404;149.120;2023-07-16T12:14:40;6.70;75.60
46123;DHT22;31856;-35.404;149.120;2023-07-16T12:17:09;6.70;75.50
46123;DHT22;31856;-35.404;149.120;2023-07-16T12:19:39;6.60;75.60
46123;DHT22;31856;-35.404;149.120;2023-07-16T12:22:08;6.60;75.70
46123;DHT22;31856;-35.404;149.120;2023-07-16T12:24:38;6.60;75.60
46123;DHT22;31856;-35.404;149.120;2023-07-16T12:27:08;6.50;76.00
46123;DHT22;31856;-35.404;149.120;2023-07-16T12:29:39;6.40;76.20
46123;DHT22;31856;-35.404;149.120;2023-07-16T12:32:08;6.40;75.80
46123;DHT22;31856;-35.404;149.120;2023-07-16T12:34:38;6.40;75.80
46123;DHT22;31856;-35.404;149.120;2023-07-16T12:37:08;6.40;75.90
46123;DHT22;31856;-35.404;149.120;2023-07-16T12:39:37;6.30;76.00
46123;DHT22;31856;-35.404;149.120;2023-07-16T12:42:07;6.30;76.20
46123;DHT22;31856;-35.404;149.120;2023-07-16T12:44:38;6.30;76.10
46123;DHT22;31856;-35.404;149.120;2023-07-16T12:47:07;6.20;76.10
46123;DHT22;31856;-35.404;149.120;2023-07-16T12:49:40;6.20;76.20
46123;DHT22;31856;-35.404;149.120;2023-07-16T12:52:10;6.10;76.60
46123;DHT22;31856;-35.404;149.120;2023-07-16T12:54:39;6.00;77.00
46123;DHT22;31856;-35.404;149.120;2023-07-16T12:57:10;6.10;77.00
46123;DHT22;31856;-35.404;149.120;2023-07-16T12:59:39;6.00;77.00
46123;DHT22;31856;-35.404;149.120;2023-07-16T13:02:09;6.00;77.00
46123;DHT22;31856;-35.404;149.120;2023-07-16T13:04:38;6.00;76.70
46123;DHT22;31856;-35.404;149.120;2023-07-16T13:07:08;6.00;76.90
46123;DHT22;31856;-35.404;149.120;2023-07-16T13:09:37;5.90;77.10
46123;DHT22;31856;-35.404;149.120;2023-07-16T13:12:07;5.90;77.20
46123;DHT22;31856;-35.404;149.120;2023-07-16T13:14:38;5.80;77.60
46123;DHT22;31856;-35.404;149.120;2023-07-16T13:17:07;5.70;77.50
46123;DHT22;31856;-35.404;149.120;2023-07-16T13:19:37;5.70;77.10
46123;DHT22;31856;-35.404;149.120;2023-07-16T13:22:08;5.70;77.30
46123;DHT22;31856;-35.404;149.120;2023-07-16T13:24:38;5.70;77.70
46123;DHT22;31856;-35.404;149.120;2023-07-16T13:27:09;5.60;78.10
46123;DHT22;31856;-35.404;149.120;2023-07-16T13:29:39;5.60;78.30
46123;DHT22;31856;-35.404;149.120;2023-07-16T13:32:08;5.60;78.40
46123;DHT22;31856;-35.404;149.120;2023-07-16T13:34:38;5.60;78.30
46123;DHT22;31856;-35.404;149.120;2023-07-16T13:37:09;5.60;77.80
46123;DHT22;31856;-35.404;149.120;2023-07-16T13:39:38;5.60;77.80
46123;DHT22;31856;-35.404;149.120;2023-07-16T13:42:08;5.60;77.80
46123;DHT22;31856;-35.404;149.120;2023-07-16T13:44:50;5.60;78.10
46123;DHT22;31856;-35.404;149.120;2023-07-16T13:47:19;5.50;78.30
46123;DHT22;31856;-35.404;149.120;2023-07-16T13:49:50;5.50;78.00
46123;DHT22;31856;-35.404;149.120;2023-07-16T13:52:21;5.50;77.60
46123;DHT22;31856;-35.404;149.120;2023-07-16T13:54:51;5.40;78.10
46123;DHT22;31856;-35.404;149.120;2023-07-16T13:57:21;5.40;77.90
46123;DHT22;31856;-35.404;149.120;2023-07-16T13:59:51;5.40;78.00
46123;DHT22;31856;-35.404;149.120;2023-07-16T14:02:20;5.40;78.00
46123;DHT22;31856;-35.404;149.120;2023-07-16T14:04:50;5.30;77.70
46123;DHT22;31856;-35.404;149.120;2023-07-16T14:07:20;5.30;78.00
46123;DHT22;31856;-35.404;149.120;2023-07-16T14:09:49;5.30;78.00
46123;DHT22;31856;-35.404;149.120;2023-07-16T14:12:20;5.20;78.40
46123;DHT22;31856;-35.404;149.120;2023-07-16T14:14:50;5.20;78.60
46123;DHT22;31856;-35.404;149.120;2023-07-16T14:17:20;5.20;78.70
46123;DHT22;31856;-35.404;149.120;2023-07-16T14:19:50;5.20;78.70
46123;DHT22;31856;-35.404;149.120;2023-07-16T14:22:20;5.20;78.80
46123;DHT22;31856;-35.404;149.120;2023-07-16T14:24:53;5.20;78.90
46123;DHT22;31856;-35.404;149.120;2023-07-16T14:27:24;5.20;79.20
46123;DHT22;31856;-35.404;149.120;2023-07-16T14:29:54;5.10;79.70
46123;DHT22;31856;-35.404;149.120;2023-07-16T14:32:33;5.10;79.40
46123;DHT22;31856;-35.404;149.120;2023-07-16T14:35:03;5.10;78.70
46123;DHT22;31856;-35.404;149.120;2023-07-16T14:37:39;5.00;78.60
46123;DHT22;31856;-35.404;149.120;2023-07-16T14:40:09;5.00;78.40
46123;DHT22;31856;-35.404;149.120;2023-07-16T14:42:38;5.00;78.70
46123;DHT22;31856;-35.404;149.120;2023-07-16T14:45:08;4.90;78.90
46123;DHT22;31856;-35.404;149.120;2023-07-16T14:47:39;4.90;78.60
46123;DHT22;31856;-35.404;149.120;2023-07-16T14:50:09;4.90;78.60
46123;DHT22;31856;-35.404;149.120;2023-07-16T14:52:39;4.90;79.20
46123;DHT22;31856;-35.404;149.120;2023-07-16T14:55:09;4.90;79.00
46123;DHT22;31856;-35.404;149.120;2023-07-16T14:57:38;4.80;78.80
46123;DHT22;31856;-35.404;149.120;2023-07-16T15:00:08;4.80;78.70
46123;DHT22;31856;-35.404;149.120;2023-07-16T15:02:40;4.80;78.10
46123;DHT22;31856;-35.404;149.120;2023-07-16T15:05:10;4.70;77.80
46123;DHT22;31856;-35.404;149.120;2023-07-16T15:07:40;4.70;78.40
46123;DHT22;31856;-35.404;149.120;2023-07-16T15:10:11;4.70;78.50
46123;DHT22;31856;-35.404;149.120;2023-07-16T15:12:41;4.60;78.90
46123;DHT22;31856;-35.404;149.120;2023-07-16T15:15:10;4.60;78.70
46123;DHT22;31856;-35.404;149.120;2023-07-16T15:17:40;4.60;79.10